Time;durP1;ratioP1;P1;durP2;ratioP2;P2;SDS_P1;SDS_P2;PMS_P1;PMS_P2;Temp;Humidity;BMP_temperature;BMP_pressure;BME280_temperature;BME280_humidity;BME280_pressure;Samples;Min_cycle;Max_cycle;Signal;HPM_P1;HPM_P2
2023/09/19 00:01:02;;;;;;;8.20;0.50;;;;;;;16.72;80.78;100359.81;7359349;19;20413;-66
2023/09/19 00:03:31;;;;;;;8.23;0.30;;;;;;;16.75;81.33;100368.22;7358085;19;20523;-65
2023/09/19 00:05:59;;;;;;;9.48;0.45;;;;;;;16.75;81.41;100364.72;7357274;19;20273;-65
2023/09/19 00:08:27;;;;;;;5.75;0.50;;;;;;;16.72;80.18;100359.81;7357723;19;21018;-65
2023/09/19 00:11:05;;;;;;;5.78;0.40;;;;;;;16.73;80.86;100359.63;7356342;19;20697;-66
2023/09/19 00:13:33;;;;;;;12.32;0.52;;;;;;;16.77;81.75;100357.34;7360115;19;20562;-65
2023/09/19 00:16:01;;;;;;;8.43;0.60;;;;;;;16.77;80.66;100363.50;7357020;19;20014;-66
2023/09/19 00:18:29;;;;;;;6.03;0.40;;;;;;;16.76;80.09;100355.75;7354316;19;20514;-65
2023/09/19 00:20:58;;;;;;;7.82;0.50;;;;;;;16.77;80.28;100357.34;7352416;19;20604;-66
2023/09/19 00:23:25;;;;;;;8.90;0.45;;;;;;;16.74;79.89;100355.13;7351762;19;20014;-65
2023/09/19 00:25:57;;;;;;;7.13;0.60;;;;;;;16.72;80.17;100351.84;7356240;19;20025;-65
2023/09/19 00:28:24;;;;;;;6.75;0.45;;;;;;;16.71;80.73;100348.34;7356160;19;20420;-66
2023/09/19 00:30:51;;;;;;;5.40;0.50;;;;;;;16.70;80.92;100343.28;7357455;19;20014;-65
2023/09/19 00:33:19;;;;;;;7.20;1.00;;;;;;;16.71;81.01;100343.03;7355943;19;20011;-65
2023/09/19 00:35:52;;;;;;;5.50;0.60;;;;;;;16.72;81.37;100347.34;7356807;19;20573;-66
2023/09/19 00:38:22;;;;;;;5.43;0.38;;;;;;;16.71;80.16;100342.25;7354649;19;20014;-66
2023/09/19 00:40:51;;;;;;;3.38;0.40;;;;;;;16.72;81.15;100344.69;7358295;19;20516;-65
2023/09/19 00:43:20;;;;;;;9.50;0.60;;;;;;;16.67;80.49;100350.63;7355588;19;20446;-67
2023/09/19 00:45:51;;;;;;;6.28;1.65;;;;;;;16.64;80.28;100351.03;7358322;19;20026;-65
2023/09/19 00:48:19;;;;;;;5.45;0.50;;;;;;;16.65;81.55;100350.03;7354661;19;20689;-65
2023/09/19 00:50:47;;;;;;;10.32;0.45;;;;;;;16.66;81.76;100356.13;7354915;19;20761;-66
2023/09/19 00:53:20;;;;;;;8.02;0.55;;;;;;;16.64;80.93;100359.00;7354181;19;20014;-66
2023/09/19 00:55:49;;;;;;;7.97;0.95;;;;;;;16.58;80.42;100373.09;7356802;19;20715;-65
2023/09/19 00:58:18;;;;;;;11.35;1.02;;;;;;;16.53;80.29;100358.75;7353523;19;20018;-65
2023/09/19 01:00:48;;;;;;;10.30;0.47;;;;;;;16.49;80.70;100363.66;7355028;19;20022;-65
2023/09/19 01:03:15;;;;;;;7.88;0.63;;;;;;;16.49;80.92;100358.34;7355567;19;20118;-65
2023/09/19 01:05:42;;;;;;;8.65;0.70;;;;;;;16.49;80.60;100363.66;7357646;19;20024;-65
2023/09/19 01:08:11;;;;;;;8.93;0.50;;;;;;;16.50;80.36;100372.44;7352363;19;20359;-65
2023/09/19 01:10:52;;;;;;;6.20;0.60;;;;;;;16.49;80.53;100370.81;7356644;19;20041;-65
2023/09/19 01:13:30;;;;;;;11.93;0.50;;;;;;;16.46;80.08;100364.06;7353821;19;20026;-65
2023/09/19 01:16:16;;;;;;;9.73;0.57;;;;;;;16.39;80.18;100379.19;7356614;19;20597;-64
2023/09/19 01:19:13;;;;;;;4.93;0.60;;;;;;;16.33;80.58;100372.00;7356300;19;20133;-65
2023/09/19 01:22:02;;;;;;;9.93;0.50;;;;;;;16.34;81.80;100371.00;7338983;19;20086;-66
2023/09/19 01:24:49;;;;;;;6.22;0.50;;;;;;;16.40;82.38;100372.03;7350591;19;20018;-65
2023/09/19 01:27:31;;;;;;;10.27;0.50;;;;;;;16.37;81.12;100365.28;7354197;19;20015;-66
2023/09/19 01:30:13;;;;;;;9.27;0.50;;;;;;;16.34;80.85;100364.88;7358556;19;20026;-65
2023/09/19 01:32:41;;;;;;;11.82;0.90;;;;;;;16.28;80.81;100363.84;7352787;19;20250;-64
2023/09/19 01:35:12;;;;;;;8.45;0.80;;;;;;;16.27;81.54;100360.34;7356997;19;20455;-64
2023/09/19 01:37:43;;;;;;;11.77;0.60;;;;;;;16.25;81.32;100364.25;7359727;19;20090;-66
2023/09/19 01:40:17;;;;;;;12.95;0.65;;;;;;;16.31;82.04;100367.91;7356487;19;20774;-66
2023/09/19 01:43:00;;;;;;;12.30;1.02;;;;;;;16.34;81.97;100362.22;7353074;19;20034;-65
2023/09/19 01:45:51;;;;;;;9.38;0.75;;;;;;;16.35;82.06;100361.19;7359637;19;20589;-65
2023/09/19 01:48:31;;;;;;;5.47;0.40;;;;;;;16.33;81.25;100363.22;7353392;19;20099;-64
2023/09/19 01:51:02;;;;;;;7.43;0.50;;;;;;;16.33;81.43;100358.72;7352066;19;20018;-64
2023/09/19 01:53:36;;;;;;;8.25;0.60;;;;;;;16.35;81.46;100369.16;7351970;19;20501;-66
2023/09/19 01:56:08;;;;;;;11.20;0.65;;;;;;;16.39;81.32;100362.41;7354230;19;20018;-65
2023/09/19 01:58:43;;;;;;;9.13;0.60;;;;;;;16.39;81.41;100365.91;7351581;19;20581;-65
2023/09/19 02:01:15;;;;;;;8.65;0.70;;;;;;;16.36;81.41;100354.84;7351405;19;20018;-64
2023/09/19 02:03:44;;;;;;;7.93;0.50;;;;;;;16.40;82.24;100348.94;7351634;19;20026;-65
2023/09/19 02:06:15;;;;;;;8.90;1.10;;;;;;;16.44;81.37;100354.66;7349473;19;20051;-65
2023/09/19 02:08:42;;;;;;;14.85;1.30;;;;;;;16.42;80.72;100360.16;7350137;19;20026;-64
2023/09/19 02:11:10;;;;;;;7.75;0.47;;;;;;;16.44;80.66;100354.66;7351599;19;20751;-64
2023/09/19 02:13:38;;;;;;;9.30;0.60;;;;;;;16.48;80.57;100354.06;7355636;19;20450;-64
2023/09/19 02:16:07;;;;;;;11.48;0.82;;;;;;;16.45;80.43;100362.44;7351534;19;20014;-65
2023/09/19 02:18:35;;;;;;;10.27;0.80;;;;;;;16.41;80.65;100371.81;7351097;19;20109;-64
2023/09/19 02:21:04;;;;;;;8.68;0.60;;;;;;;16.42;82.51;100376.09;7355804;19;20015;-65
2023/09/19 02:23:31;;;;;;;10.50;0.80;;;;;;;16.41;80.97;100371.00;7354184;19;20413;-65
2023/09/19 02:26:00;;;;;;;8.45;0.70;;;;;;;16.41;80.52;100379.78;7354506;19;20010;-64
2023/09/19 02:28:31;;;;;;;11.73;0.60;;;;;;;16.39;80.22;100384.50;7359880;19;20018;-65
2023/09/19 02:30:59;;;;;;;10.15;0.73;;;;;;;16.39;80.34;100384.50;7362816;19;20010;-65
2023/09/19 02:33:28;;;;;;;12.23;0.82;;;;;;;16.32;80.93;100377.50;7358638;19;20094;-65
2023/09/19 02:35:58;;;;;;;6.40;0.47;;;;;;;16.35;81.62;100382.44;7359674;19;20013;-66
2023/09/19 02:38:25;;;;;;;15.63;1.15;;;;;;;16.32;81.23;100378.34;7356245;19;20688;-65
2023/09/19 02:40:55;;;;;;;9.52;0.52;;;;;;;16.35;81.75;100387.75;7360135;19;20037;-65
2023/09/19 02:43:23;;;;;;;8.32;0.85;;;;;;;16.38;82.19;100377.53;7357000;19;20010;-67
2023/09/19 02:45:53;;;;;;;9.48;0.50;;;;;;;16.38;81.86;100366.09;7359502;19;20021;-65
2023/09/19 02:48:21;;;;;;;10.98;0.90;;;;;;;16.39;81.51;100362.41;7357597;19;20479;-65
2023/09/19 02:50:50;;;;;;;9.90;0.80;;;;;;;16.38;81.21;100360.78;7359360;19;20017;-66
2023/09/19 02:53:18;;;;;;;14.07;0.82;;;;;;;16.35;80.88;100362.00;7359831;19;20046;-65
2023/09/19 02:55:47;;;;;;;9.95;1.92;;;;;;;16.31;81.61;100346.66;7359902;19;20117;-65
2023/09/19 02:58:14;;;;;;;10.75;0.95;;;;;;;16.35;83.12;100354.06;7356786;19;20055;-64
2023/09/19 03:00:42;;;;;;;8.35;0.60;;;;;;;16.39;82.00;100351.81;7361808;19;20022;-65
2023/09/19 03:03:09;;;;;;;7.88;0.55;;;;;;;16.38;80.80;100355.47;7358996;19;20493;-64
2023/09/19 03:05:38;;;;;;;12.52;0.77;;;;;;;16.38;81.45;100352.81;7359022;19;20050;-65
2023/09/19 03:08:06;;;;;;;8.18;0.90;;;;;;;16.39;81.58;100346.50;7356897;19;20017;-64
2023/09/19 03:10:33;;;;;;;6.60;0.50;;;;;;;16.42;80.82;100346.88;7358906;19;20316;-67
2023/09/19 03:13:00;;;;;;;12.18;1.33;;;;;;;16.39;80.55;100349.97;7355161;19;20371;-65
2023/09/19 03:15:27;;;;;;;9.02;0.55;;;;;;;16.37;80.86;100352.00;7362711;19;20018;-64
2023/09/19 03:17:54;;;;;;;8.98;1.25;;;;;;;16.37;81.38;100344.03;7356853;19;20022;-65
2023/09/19 03:20:22;;;;;;;7.88;0.40;;;;;;;16.39;81.14;100336.69;7354540;19;20010;-65
2023/09/19 03:22:52;;;;;;;7.90;0.50;;;;;;;16.41;81.24;100342.59;7357350;19;20569;-65
2023/09/19 03:25:19;;;;;;;10.18;0.88;;;;;;;16.42;81.22;100335.44;7358703;19;20022;-64
2023/09/19 03:27:47;;;;;;;9.18;1.67;;;;;;;16.44;81.00;100336.91;7356819;19;20044;-66
2023/09/19 03:30:14;;;;;;;10.48;1.20;;;;;;;16.42;80.49;100343.41;7360868;19;20021;-65
2023/09/19 03:32:47;;;;;;;7.47;0.60;;;;;;;16.38;81.70;100344.84;7355943;19;20019;-65
2023/09/19 03:35:14;;;;;;;12.38;0.95;;;;;;;16.42;82.14;100341.59;7357517;19;20639;-65
2023/09/19 03:37:42;;;;;;;8.82;0.63;;;;;;;16.44;81.68;100342.22;7357829;19;20783;-64
2023/09/19 03:40:10;;;;;;;7.50;0.57;;;;;;;16.45;81.13;100340.38;7360179;19;20033;-65
2023/09/19 03:42:39;;;;;;;9.65;0.82;;;;;;;16.43;80.95;100337.91;7355402;19;20019;-66
2023/09/19 03:45:11;;;;;;;11.25;0.93;;;;;;;16.45;80.35;100332.41;7358276;19;20964;-65
2023/09/19 03:47:40;;;;;;;9.48;1.58;;;;;;;16.43;80.68;100339.75;7359082;19;20014;-65
2023/09/19 03:50:10;;;;;;;8.65;0.50;;;;;;;16.40;80.66;100326.88;7356918;19;20011;-65
2023/09/19 03:52:38;;;;;;;8.73;0.40;;;;;;;16.38;81.10;100319.13;7355958;19;20805;-65
2023/09/19 03:55:06;;;;;;;7.22;0.50;;;;;;;16.36;80.83;100317.66;7356813;19;20086;-65
2023/09/19 03:57:36;;;;;;;8.07;0.70;;;;;;;16.37;81.66;100312.16;7354741;19;20293;-65
2023/09/19 04:00:05;;;;;;;6.13;0.60;;;;;;;16.39;81.49;100304.00;7361029;19;20034;-64
2023/09/19 04:02:33;;;;;;;11.05;0.88;;;;;;;16.36;81.22;100304.38;7355982;19;20022;-64
2023/09/19 04:05:00;;;;;;;6.75;0.73;;;;;;;16.35;81.29;100300.13;7361477;19;20010;-65
2023/09/19 04:07:28;;;;;;;10.00;0.63;;;;;;;16.38;81.63;100305.84;7351335;19;20424;-65
2023/09/19 04:09:56;;;;;;;13.30;1.42;;;;;;;16.44;82.14;100301.53;7356434;19;20124;-65
2023/09/19 04:12:23;;;;;;;8.93;0.50;;;;;;;16.43;82.46;100292.75;7355840;19;20026;-66
2023/09/19 04:14:51;;;;;;;9.57;0.60;;;;;;;16.47;82.60;100301.94;7359513;19;20021;-64
2023/09/19 04:17:18;;;;;;;8.00;0.52;;;;;;;16.47;82.15;100283.34;7356354;19;20019;-64
2023/09/19 04:19:46;;;;;;;7.78;0.50;;;;;;;16.47;82.42;100283.34;7353989;19;20679;-65
2023/09/19 04:22:13;;;;;;;9.82;0.60;;;;;;;16.50;81.72;100293.59;7350619;19;20018;-65
2023/09/19 04:24:41;;;;;;;8.88;0.50;;;;;;;16.51;81.90;100291.72;7355791;19;20482;-66
2023/09/19 04:27:09;;;;;;;6.90;0.52;;;;;;;16.52;82.41;100280.09;7352353;19;20042;-65
2023/09/19 04:29:37;;;;;;;8.45;0.60;;;;;;;16.50;82.85;100275.00;7359510;19;20387;-67
2023/09/19 04:32:05;;;;;;;8.02;0.40;;;;;;;16.56;83.76;100265.38;7354611;19;20046;-67
2023/09/19 04:34:34;;;;;;;8.93;0.57;;;;;;;16.59;83.62;100257.84;7358443;19;20031;-65
2023/09/19 04:37:01;;;;;;;10.43;0.77;;;;;;;16.59;83.35;100260.50;7353121;19;20015;-65
2023/09/19 04:39:29;;;;;;;5.38;0.60;;;;;;;16.59;83.07;100268.47;7354231;19;20010;-65
2023/09/19 04:41:56;;;;;;;6.25;0.50;;;;;;;16.60;83.09;100269.31;7356213;19;20394;-65
2023/09/19 04:44:24;;;;;;;9.00;0.50;;;;;;;16.58;82.96;100266.84;7358214;19;20593;-64
2023/09/19 04:46:51;;;;;;;9.02;0.68;;;;;;;16.60;85.01;100261.34;7355611;19;20010;-64
2023/09/19 04:49:18;;;;;;;10.93;0.80;;;;;;;16.62;84.68;100261.91;7357043;19;20019;-65
2023/09/19 04:51:47;;;;;;;6.78;0.85;;;;;;;16.63;83.72;100266.22;7352734;19;20007;-65
2023/09/19 04:54:14;;;;;;;8.85;0.77;;;;;;;16.66;84.04;100257.81;7358592;19;20022;-66
2023/09/19 04:56:42;;;;;;;10.23;0.95;;;;;;;16.65;84.01;100262.34;7357748;19;20278;-66
2023/09/19 04:59:10;;;;;;;10.45;0.50;;;;;;;16.69;85.06;100265.41;7354197;19;20394;-65
2023/09/19 05:01:38;;;;;;;7.72;0.50;;;;;;;16.74;85.21;100265.59;7354345;19;21240;-66
2023/09/19 05:04:05;;;;;;;4.78;0.70;;;;;;;16.74;85.35;100262.94;7355120;19;20018;-66
2023/09/19 05:06:33;;;;;;;10.55;0.40;;;;;;;16.79;85.32;100267.63;7353870;19;20018;-65
2023/09/19 05:09:00;;;;;;;6.25;0.45;;;;;;;16.82;85.06;100270.69;7355225;19;20015;-66
2023/09/19 05:11:29;;;;;;;12.85;0.88;;;;;;;16.84;85.16;100267.81;7355334;19;20361;-65
2023/09/19 05:13:56;;;;;;;8.85;0.55;;;;;;;16.87;85.06;100270.06;7354289;19;20006;-65
2023/09/19 05:16:24;;;;;;;5.47;0.40;;;;;;;16.90;85.14;100267.00;7363627;19;20090;-64
2023/09/19 05:18:52;;;;;;;10.57;0.65;;;;;;;16.88;85.53;100264.53;7355576;19;20007;-65
2023/09/19 05:21:19;;;;;;;10.30;0.47;;;;;;;16.92;85.73;100273.72;7351625;19;20018;-66
2023/09/19 05:23:47;;;;;;;7.43;0.50;;;;;;;16.90;85.46;100267.81;7354315;19;20029;-64
2023/09/19 05:26:16;;;;;;;11.13;1.20;;;;;;;16.95;86.00;100268.00;7351886;19;20341;-66
2023/09/19 05:28:43;;;;;;;6.88;0.40;;;;;;;16.97;85.44;100270.44;7350709;19;20057;-66
2023/09/19 05:31:11;;;;;;;10.05;0.60;;;;;;;16.98;85.43;100266.75;7355466;19;20007;-66
2023/09/19 05:33:38;;;;;;;11.15;0.93;;;;;;;16.98;85.38;100264.09;7354726;19;20017;-66
2023/09/19 05:36:05;;;;;;;10.52;0.52;;;;;;;17.03;86.71;100259.81;7355417;19;20011;-67
2023/09/19 05:38:32;;;;;;;8.75;0.50;;;;;;;17.06;86.34;100256.75;7354370;19;20029;-67
2023/09/19 05:41:00;;;;;;;8.07;0.50;;;;;;;17.05;85.45;100263.09;7353663;19;20083;-66
2023/09/19 05:43:28;;;;;;;9.18;0.93;;;;;;;17.07;85.27;100249.56;7356400;19;20011;-65
2023/09/19 05:45:56;;;;;;;9.90;1.75;;;;;;;17.08;85.48;100245.88;7355787;19;20010;-65
2023/09/19 05:48:23;;;;;;;11.38;0.80;;;;;;;17.09;85.12;100245.69;7354183;19;20546;-65
2023/09/19 05:50:50;;;;;;;10.32;0.50;;;;;;;17.10;85.24;100239.34;7355788;19;20026;-65
2023/09/19 05:53:18;;;;;;;17.25;1.10;;;;;;;17.15;86.30;100232.56;7352497;19;20472;-65
2023/09/19 05:55:45;;;;;;;14.50;0.60;;;;;;;17.15;86.37;100238.72;7357459;19;20010;-67
2023/09/19 05:58:14;;;;;;;11.60;0.80;;;;;;;17.16;86.03;100234.22;7363654;19;20013;-65
2023/09/19 06:00:42;;;;;;;9.77;1.05;;;;;;;17.21;85.89;100227.25;7364141;19;20019;-64
2023/09/19 06:03:11;;;;;;;9.02;0.50;;;;;;;17.23;86.20;100217.19;7358504;19;20011;-65
2023/09/19 06:05:41;;;;;;;10.95;0.70;;;;;;;17.24;86.15;100207.38;7363601;19;20010;-66
2023/09/19 06:08:09;;;;;;;11.52;1.20;;;;;;;17.25;85.99;100217.00;7361486;19;20054;-65
2023/09/19 06:10:36;;;;;;;6.18;0.50;;;;;;;17.25;86.13;100204.50;7359441;19;20014;-65
2023/09/19 06:13:04;;;;;;;5.97;0.43;;;;;;;17.25;86.75;100203.69;7363090;19;20478;-65
2023/09/19 06:15:33;;;;;;;13.70;1.95;;;;;;;17.29;86.47;100207.56;7362237;19;21689;-65
2023/09/19 06:18:02;;;;;;;7.10;0.40;;;;;;;17.30;86.87;100206.53;7356438;19;20143;-66
2023/09/19 06:20:29;;;;;;;12.73;0.60;;;;;;;17.29;86.86;100208.38;7362579;19;20620;-65
2023/09/19 06:22:57;;;;;;;5.70;0.45;;;;;;;17.31;87.22;100202.84;7358851;19;20501;-66
2023/09/19 06:25:25;;;;;;;7.35;0.40;;;;;;;17.34;87.53;100205.91;7358029;19;20015;-65
2023/09/19 06:27:54;;;;;;;7.35;0.52;;;;;;;17.37;87.77;100194.81;7355377;19;20150;-65
2023/09/19 06:30:24;;;;;;;5.47;0.45;;;;;;;17.40;88.66;100199.72;7357830;19;20022;-65
2023/09/19 06:32:56;;;;;;;7.15;0.40;;;;;;;17.41;88.25;100189.91;7361884;19;20044;-66
2023/09/19 06:35:26;;;;;;;9.88;0.40;;;;;;;17.43;89.12;100199.28;7360641;19;20029;-66
2023/09/19 06:37:53;;;;;;;10.73;0.60;;;;;;;17.44;89.50;100198.28;7353495;19;20033;-65
2023/09/19 06:40:30;;;;;;;7.03;0.50;;;;;;;17.45;89.82;100188.44;7360091;19;20494;-65
2023/09/19 06:42:58;;;;;;;7.03;0.70;;;;;;;17.48;89.67;100190.66;7358927;19;20578;-66
2023/09/19 06:45:26;;;;;;;11.02;0.50;;;;;;;17.46;89.76;100184.75;7360072;19;20014;-65
2023/09/19 06:47:57;;;;;;;7.63;0.52;;;;;;;17.51;90.60;100177.78;7359692;19;20498;-65
2023/09/19 06:50:35;;;;;;;9.27;0.73;;;;;;;17.56;90.65;100178.97;7360567;19;20030;-64
2023/09/19 06:53:05;;;;;;;6.57;0.57;;;;;;;17.61;90.45;100184.50;7358843;19;20014;-65
2023/09/19 06:55:33;;;;;;;6.32;0.40;;;;;;;17.65;91.17;100193.69;7361533;19;20015;-64
2023/09/19 06:58:01;;;;;;;4.85;0.35;;;;;;;17.65;91.23;100185.69;7357415;19;20022;-66
2023/09/19 07:00:36;;;;;;;3.15;0.30;;;;;;;17.68;93.31;100172.78;7358537;19;20395;-65
2023/09/19 07:03:07;;;;;;;10.60;0.50;;;;;;;17.73;93.51;100167.63;7359102;19;20546;-66
2023/09/19 07:05:38;;;;;;;6.50;0.32;;;;;;;17.85;95.81;100170.41;7356553;19;20014;-65
2023/09/19 07:08:12;;;;;;;8.60;0.45;;;;;;;17.89;94.23;100152.97;7360248;19;20027;-65
2023/09/19 07:10:48;;;;;;;4.68;0.52;;;;;;;17.88;92.50;100152.16;7355654;19;20105;-64
2023/09/19 07:13:17;;;;;;;9.35;0.70;;;;;;;17.92;91.68;100150.69;7357568;19;20106;-65
2023/09/19 07:15:47;;;;;;;4.60;0.40;;;;;;;17.94;91.80;100145.13;7355242;19;20022;-65
2023/09/19 07:18:16;;;;;;;6.32;0.38;;;;;;;17.93;91.12;100149.66;7355868;19;20019;-65
2023/09/19 07:21:04;;;;;;;6.95;0.40;;;;;;;17.96;91.16;100156.41;7355739;19;20056;-65
2023/09/19 07:23:34;;;;;;;5.55;0.32;;;;;;;17.97;90.24;100150.03;7357210;19;20356;-65
2023/09/19 07:26:05;;;;;;;3.25;0.38;;;;;;;17.97;90.17;100143.91;7355062;19;20002;-65
2023/09/19 07:29:03;;;;;;;8.60;0.40;;;;;;;17.99;90.68;100139.16;7353735;19;20517;-65
2023/09/19 07:32:02;;;;;;;7.00;0.60;;;;;;;18.04;91.35;100134.00;7354010;19;20018;-65
2023/09/19 07:35:01;;;;;;;7.63;0.75;;;;;;;18.05;90.55;100130.31;7359081;19;20014;-65
2023/09/19 07:37:34;;;;;;;6.82;0.50;;;;;;;18.05;90.10;100130.31;7343550;19;20140;-66
2023/09/19 07:40:26;;;;;;;6.80;0.50;;;;;;;18.04;90.40;100126.81;7349371;19;20014;-65
2023/09/19 07:42:55;;;;;;;7.45;0.60;;;;;;;18.03;90.34;100125.19;7357058;19;20019;-65
2023/09/19 07:45:36;;;;;;;7.60;0.47;;;;;;;18.03;90.07;100117.19;7358543;19;20018;-65
2023/09/19 07:48:06;;;;;;;4.78;0.50;;;;;;;18.05;90.56;100111.66;7359228;19;20429;-65
2023/09/19 07:50:36;;;;;;;5.70;0.57;;;;;;;18.09;91.07;100115.50;7358346;19;20615;-67
2023/09/19 07:53:05;;;;;;;12.07;0.63;;;;;;;18.14;91.56;100108.50;7355386;19;20029;-67
2023/09/19 07:55:33;;;;;;;8.30;0.52;;;;;;;18.19;90.99;100113.16;7354847;19;20026;-66
2023/09/19 07:58:03;;;;;;;7.90;0.60;;;;;;;18.22;90.45;100104.75;7355615;19;20023;-65
2023/09/19 08:00:32;;;;;;;10.23;0.80;;;;;;;18.22;90.30;100102.91;7354174;19;20018;-65
2023/09/19 08:02:59;;;;;;;7.90;1.08;;;;;;;18.21;90.37;100109.25;7355178;19;20111;-66
2023/09/19 08:05:34;;;;;;;8.85;0.60;;;;;;;18.23;90.39;100103.72;7357097;19;20013;-64
2023/09/19 08:08:02;;;;;;;7.13;0.70;;;;;;;18.25;90.80;100105.13;7352653;19;20185;-65
2023/09/19 08:10:35;;;;;;;7.57;0.70;;;;;;;18.29;90.82;100114.28;7354783;19;20483;-65
2023/09/19 08:13:02;;;;;;;10.02;0.82;;;;;;;18.30;90.12;100123.91;7353288;19;20010;-64
2023/09/19 08:15:33;;;;;;;4.90;0.65;;;;;;;18.30;90.56;100113.25;7359166;19;20018;-64
2023/09/19 08:18:05;;;;;;;9.20;0.70;;;;;;;18.34;90.98;100126.94;7350440;19;20090;-65
2023/09/19 08:20:35;;;;;;;9.70;0.85;;;;;;;18.35;90.87;100124.06;7356171;19;20007;-65
2023/09/19 08:23:03;;;;;;;9.00;0.70;;;;;;;18.34;91.23;100117.09;7353958;19;20022;-65
2023/09/19 08:25:31;;;;;;;9.60;0.80;;;;;;;18.31;91.43;100119.41;7357918;19;20019;-65
2023/09/19 08:28:01;;;;;;;13.85;0.95;;;;;;;18.32;92.20;100126.38;7353124;19;20032;-65
2023/09/19 08:30:30;;;;;;;9.23;0.82;;;;;;;18.35;91.60;100117.91;7352035;19;20018;-65
2023/09/19 08:33:00;;;;;;;9.43;1.38;;;;;;;18.36;90.98;100112.38;7352765;19;20010;-65
2023/09/19 08:35:28;;;;;;;8.57;0.77;;;;;;;18.37;90.60;100102.53;7353594;19;20082;-64
2023/09/19 08:37:56;;;;;;;10.13;0.73;;;;;;;18.47;90.89;100105.50;7353866;19;20507;-65
2023/09/19 08:40:27;;;;;;;11.90;1.73;;;;;;;18.48;89.70;100101.81;7356409;19;20048;-64
2023/09/19 08:42:56;;;;;;;10.23;0.88;;;;;;;18.53;89.36;100109.13;7354894;19;20018;-65
2023/09/19 08:45:27;;;;;;;10.80;0.85;;;;;;;18.57;88.49;100113.81;7354990;19;21033;-65
2023/09/19 08:48:14;;;;;;;10.88;1.45;;;;;;;18.63;89.29;100101.47;7356779;19;20437;-66
2023/09/19 08:50:48;;;;;;;14.38;5.22;;;;;;;18.63;87.86;100125.44;7352429;19;20033;-65
2023/09/19 08:53:27;;;;;;;11.43;4.97;;;;;;;18.66;88.15;100122.31;7353195;19;20054;-65
2023/09/19 08:55:57;;;;;;;17.17;5.72;;;;;;;18.70;88.44;100099.50;7354991;19;20032;-65
2023/09/19 08:58:31;;;;;;;21.88;5.25;;;;;;;18.76;89.43;100111.94;7355133;19;20066;-66
2023/09/19 09:01:01;;;;;;;10.65;1.50;;;;;;;18.80;88.33;100115.78;7357410;19;20019;-66
2023/09/19 09:03:34;;;;;;;9.40;1.23;;;;;;;18.83;88.32;100109.22;7354853;19;20781;-64
2023/09/19 09:06:02;;;;;;;9.57;1.27;;;;;;;18.83;87.92;100114.53;7355517;19;20014;-65
2023/09/19 09:08:31;;;;;;;21.17;2.63;;;;;;;18.81;87.71;100112.09;7354634;19;20022;-65
2023/09/19 09:10:59;;;;;;;16.92;2.00;;;;;;;18.80;88.30;100105.94;7354125;19;20030;-66
2023/09/19 09:13:27;;;;;;;14.65;1.75;;;;;;;18.85;90.11;100107.94;7338480;19;20430;-64
2023/09/19 09:16:04;;;;;;;15.90;1.52;;;;;;;18.82;88.49;100120.91;7352616;19;20087;-65
2023/09/19 09:18:41;;;;;;;21.45;2.30;;;;;;;18.80;88.80;100123.78;7355806;19;20392;-65
2023/09/19 09:21:08;;;;;;;18.88;2.05;;;;;;;18.77;89.46;100138.41;7352416;19;20029;-65
2023/09/19 09:23:39;;;;;;;15.40;2.42;;;;;;;18.75;89.60;100121.78;7353879;19;20034;-65
2023/09/19 09:26:10;;;;;;;15.80;2.10;;;;;;;18.76;90.53;100139.44;7354095;19;20022;-65
2023/09/19 09:28:45;;;;;;;19.20;2.33;;;;;;;18.74;90.21;100119.38;7352169;19;20075;-65
2023/09/19 09:31:23;;;;;;;15.70;1.73;;;;;;;18.73;90.05;100133.75;7350207;19;20015;-65
2023/09/19 09:33:55;;;;;;;17.00;1.50;;;;;;;18.69;89.53;100117.34;7357289;19;20029;-65
2023/09/19 09:36:43;;;;;;;17.17;1.80;;;;;;;18.72;89.55;100116.94;7354285;19;20624;-65
2023/09/19 09:39:32;;;;;;;14.52;1.92;;;;;;;18.71;88.90;100115.28;7349856;19;20823;-65
2023/09/19 09:42:06;;;;;;;14.23;2.38;;;;;;;18.74;89.04;100122.03;7352783;19;20014;-65
2023/09/19 09:44:35;;;;;;;15.43;1.85;;;;;;;18.74;88.57;100120.16;7353905;19;20483;-65
2023/09/19 09:47:31;;;;;;;18.70;2.08;;;;;;;18.74;88.01;100120.16;7354985;19;20487;-65
2023/09/19 09:50:07;;;;;;;14.93;2.17;;;;;;;18.76;89.12;100118.09;7351955;19;20014;-65
2023/09/19 09:52:45;;;;;;;15.60;1.38;;;;;;;18.81;88.02;100109.44;7354820;19;20792;-65
2023/09/19 09:55:12;;;;;;;14.35;1.35;;;;;;;18.85;86.58;100118.59;7353527;19;20511;-64
2023/09/19 09:57:41;;;;;;;15.02;1.38;;;;;;;18.89;85.80;100105.66;7351125;19;20006;-65
2023/09/19 10:02:46;;;;;;;17.88;2.08;;;;;;;19.04;86.15;100106.88;7351170;19;20014;-65
2023/09/19 10:07:52;;;;;;;20.98;1.50;;;;;;;19.18;84.66;100081.66;7339866;19;20722;-66
2023/09/19 10:10:38;;;;;;;15.48;1.77;;;;;;;19.23;84.41;100087.13;7352978;19;20046;-66
2023/09/19 10:13:12;;;;;;;11.40;2.30;;;;;;;19.22;82.49;100096.16;7349580;19;20499;-65
2023/09/19 10:15:50;;;;;;;11.35;1.65;;;;;;;19.21;82.07;100083.03;7352357;19;20044;-65
2023/09/19 10:18:27;;;;;;;14.35;1.80;;;;;;;19.23;82.59;100096.97;7352011;19;20015;-66
2023/09/19 10:20:56;;;;;;;21.15;2.05;;;;;;;19.21;82.60;100085.69;7350987;19;20269;-66
2023/09/19 10:23:27;;;;;;;13.82;2.05;;;;;;;19.25;82.72;100108.22;7349153;19;20384;-65
2023/09/19 10:26:03;;;;;;;14.85;1.67;;;;;;;19.28;82.20;100085.63;7349688;19;20569;-65
2023/09/19 10:28:33;;;;;;;17.13;2.40;;;;;;;19.28;81.98;100088.28;7352875;19;20037;-66
2023/09/19 10:31:02;;;;;;;15.18;1.73;;;;;;;19.29;81.96;100089.91;7350864;19;20050;-66
2023/09/19 10:33:41;;;;;;;13.45;1.58;;;;;;;19.33;81.74;100091.09;7348286;19;20407;-65
2023/09/19 10:36:20;;;;;;;15.38;2.13;;;;;;;19.37;81.45;100078.91;7350624;19;20060;-65
2023/09/19 10:38:56;;;;;;;17.77;1.90;;;;;;;19.41;81.74;100072.88;7351244;19;20014;-64
2023/09/19 10:41:24;;;;;;;12.68;1.52;;;;;;;19.44;81.53;100069.81;7352165;19;20086;-66
2023/09/19 10:43:54;;;;;;;15.02;1.95;;;;;;;19.49;81.58;100082.44;7357858;19;20009;-64
2023/09/19 10:46:22;;;;;;;11.27;2.03;;;;;;;19.55;81.46;100090.38;7358787;19;20010;-65
2023/09/19 10:48:54;;;;;;;17.15;2.17;;;;;;;19.59;81.69;100072.03;7360334;19;20014;-67
2023/09/19 10:51:28;;;;;;;10.73;1.63;;;;;;;19.62;81.08;100068.88;7363819;19;20634;-65
2023/09/19 10:54:06;;;;;;;17.13;2.10;;;;;;;19.68;80.90;100072.50;7361787;19;20025;-65
2023/09/19 10:56:37;;;;;;;11.55;1.50;;;;;;;19.69;81.66;100082.94;7359822;19;20037;-65
2023/09/19 10:59:10;;;;;;;9.73;1.38;;;;;;;19.72;81.97;100074.47;7358928;19;20014;-65
2023/09/19 11:01:47;;;;;;;13.43;1.98;;;;;;;19.73;82.03;100075.28;7357130;19;20014;-65
2023/09/19 11:04:24;;;;;;;13.60;1.05;;;;;;;19.74;81.44;100079.59;7356448;19;20018;-65
2023/09/19 11:07:04;;;;;;;14.50;1.30;;;;;;;19.72;81.80;100092.34;7358169;19;20321;-65
2023/09/19 11:09:54;;;;;;;9.27;1.30;;;;;;;19.71;81.99;100080.84;7362854;19;20056;-66
2023/09/19 11:12:32;;;;;;;12.43;1.98;;;;;;;19.68;81.87;100078.66;7358402;19;20506;-66
2023/09/19 11:15:04;;;;;;;10.52;1.30;;;;;;;19.74;82.40;100083.06;7362581;19;20019;-65
2023/09/19 11:17:37;;;;;;;11.70;1.30;;;;;;;19.76;82.13;100090.84;7357586;19;20029;-64
2023/09/19 11:22:52;;;;;;;11.98;1.52;;;;;;;19.79;82.08;100075.19;7356089;19;20015;-66
2023/09/19 11:25:29;;;;;;;13.07;1.50;;;;;;;19.82;81.73;100079.22;7360166;19;20021;-66
2023/09/19 11:28:08;;;;;;;10.68;1.40;;;;;;;19.85;82.34;100076.94;7359651;19;20006;-65
2023/09/19 11:30:40;;;;;;;13.18;1.30;;;;;;;19.87;82.24;100079.34;7357389;19;20018;-65
2023/09/19 11:33:21;;;;;;;11.60;1.63;;;;;;;19.86;82.06;100075.84;7351610;19;20011;-65
2023/09/19 11:36:06;;;;;;;13.68;1.60;;;;;;;19.89;82.13;100086.09;7354759;19;20068;-65
2023/09/19 11:38:44;;;;;;;6.97;1.52;;;;;;;19.88;82.28;100076.44;7353795;19;20014;-65
2023/09/19 11:41:25;;;;;;;12.43;1.85;;;;;;;19.88;82.70;100080.97;7357031;19;20022;-65
2023/09/19 11:44:04;;;;;;;13.82;1.88;;;;;;;19.88;84.29;100081.78;7357904;19;20090;-65
2023/09/19 11:46:34;;;;;;;9.38;1.00;;;;;;;19.87;82.95;100076.69;7357794;19;20019;-65
2023/09/19 11:49:09;;;;;;;10.95;1.38;;;;;;;19.83;83.74;100076.34;7356734;19;20010;-66